WetterOnline ( https://www.wetteronline.de )

Wetter aktuell Erbeskopf

Aktuelles Wetter: Deuselbach (483m)

6-stündlich | Neueste Meldungen
Ortszeit Temperatur Wetter
Do, 02.02. 19:00 4.6° C bedeckt
Do, 02.02. 13:00 5.3° C bedeckt
Do, 02.02. 7:00 4.3° C leichter Regen
Do, 02.02. 1:00 4.2° C Sprühregen
Mi, 01.02. 19:00 4.0° C bedeckt
Mi, 01.02. 13:00 3.8° C bedeckt
Mi, 01.02. 7:00 3.7° C bedeckt
Mi, 01.02. 1:00 3.2° C Sprühregen
Ortszeit Temperatur Wetter
Do, 02.02. 19:00 4.6° C bedeckt
Do, 02.02. 18:50 4.6° C bedeckt
Do, 02.02. 18:40 4.7° C bedeckt
Do, 02.02. 18:30 4.8° C bedeckt
Do, 02.02. 18:20 4.8° C bedeckt
Do, 02.02. 18:10 4.7° C bedeckt
Do, 02.02. 18:00 4.8° C bedeckt
Do, 02.02. 17:30 4.8° C Sprühregen
Do, 02.02. 17:00 5.0° C bedeckt
Do, 02.02. 16:30 5.4° C bewölkt
Do, 02.02. 16:00 5.5° C bedeckt
Ortszeit Relative Feuchte Sichtweite
Do, 02.02. 19:00 87% 35 km
Do, 02.02. 13:00 87% 40 km
Do, 02.02. 7:00 93% 9 km
Do, 02.02. 1:00 91% 13 km
Mi, 01.02. 19:00 81% 27 km
Mi, 01.02. 13:00 80% 30 km
Mi, 01.02. 7:00 88% 24 km
Mi, 01.02. 1:00 99% 3.8 km
Ortszeit Relative Feuchte Sichtweite
Do, 02.02. 19:00 87% 35 km
Do, 02.02. 18:50 87% -
Do, 02.02. 18:40 87% -
Do, 02.02. 18:30 87% 35 km
Do, 02.02. 18:20 87% -
Do, 02.02. 18:10 87% -
Do, 02.02. 18:00 88% 30 km
Do, 02.02. 17:30 88% 16 km
Do, 02.02. 17:00 87% 30 km
Do, 02.02. 16:30 83% 40 km
Do, 02.02. 16:00 83% 45 km
Ortszeit Niederschlagsmenge Niederschlagsart
Do, 02.02. 19:00 0.1 l/m2 in 12 Std. Sprühregen
Do, 02.02. 13:00 0.1 l/m2 in 6 Std. Regen
Do, 02.02. 7:00 0.2 l/m2 in 12 Std. Regen
Do, 02.02. 1:00 0.1 l/m2 in 6 Std. Regen
Mi, 01.02. 19:00 0.0 l/m2 in 12 Std. -
Mi, 01.02. 13:00 0.0 l/m2 in 6 Std. -
Mi, 01.02. 7:00 0.8 l/m2 in 12 Std. Regen
Mi, 01.02. 1:00 0.5 l/m2 in 6 Std. Regen
Ortszeit Niederschlagsmenge Niederschlagsart
Do, 02.02. 19:00 0.0 l/m2 in 1 Std. Sprühregen
Do, 02.02. 18:50 keine Meldung -
Do, 02.02. 18:40 keine Meldung -
Do, 02.02. 18:30 0.0 l/m2 in 30 Min -
Do, 02.02. 18:20 keine Meldung -
Do, 02.02. 18:10 keine Meldung -
Do, 02.02. 18:00 <0.05 l/m2 in 1 Std. Sprühregen
Do, 02.02. 17:30 <0.05 l/m2 in 30 Min -
Do, 02.02. 17:00 <0.05 l/m2 in 1 Std. Sprühregen
Do, 02.02. 16:30 0.0 l/m2 in 30 Min -
Do, 02.02. 16:00 <0.05 l/m2 in 1 Std. Sprühregen
Ortszeit Stärke Spitze Richtung
km/h Bft. km/h Grad Sektor
Do, 02.02. 19:00 22 4 50 250° W
Do, 02.02. 13:00 31 5 59 270° W
Do, 02.02. 7:00 31 5 57 270° W
Do, 02.02. 1:00 35 5 54 260° W
Mi, 01.02. 19:00 32 5 61 260° W
Mi, 01.02. 13:00 32 5 54 270° W
Mi, 01.02. 7:00 29 5 58 270° W
Mi, 01.02. 1:00 18 3 54 250° W
Ortszeit Stärke Spitze Richtung
km/h Bft. km/h Grad Sektor
Do, 02.02. 19:00 22 4 32 250° W
Do, 02.02. 18:50 22 4 - 250° W
Do, 02.02. 18:40 22 4 - 240° SW
Do, 02.02. 18:30 20 4 30 240° SW
Do, 02.02. 18:20 20 4 - 240° SW
Do, 02.02. 18:10 22 4 - 230° SW
Do, 02.02. 18:00 24 4 44 240° SW
Do, 02.02. 17:30 29 5 47 250° W
Do, 02.02. 17:00 28 4 41 260° W
Do, 02.02. 16:30 28 4 37 260° W
Do, 02.02. 16:00 29 5 50 260° W
Ortszeit Untergrenze Bedeckung Gattung
total tief tief mittel hoch
Do, 02.02. 19:00 360 m 8/8 8/8 - - -
Do, 02.02. 13:00 360 m 8/8 8/8 - - -
Do, 02.02. 7:00 240 m 8/8 8/8 - - -
Do, 02.02. 1:00 300 m 7/8 7/8 - - -
Mi, 01.02. 19:00 660 m 8/8 8/8 - - -
Mi, 01.02. 13:00 510 m 8/8 8/8 - - -
Mi, 01.02. 7:00 1260 m 8/8 8/8 - - -
Mi, 01.02. 1:00 60 m 8/8 8/8 - - -
Ortszeit Bedeckungsgrad in Achtel und Wolkenuntergrenze
Do, 02.02. 19:00 7(360m) 8(960m)
Do, 02.02. 18:50 7(360m) 8(960m)
Do, 02.02. 18:40 8
Do, 02.02. 18:30 6(390m) 8(1020m)
Do, 02.02. 18:20 6(390m) 8(1020m)
Do, 02.02. 18:10 8
Do, 02.02. 18:00 5(360m) 8(870m)
Do, 02.02. 17:30 3(360m) 7(510m) 8(780m)
Do, 02.02. 17:00 4(390m) 8(540m)
Do, 02.02. 16:30 7(510m)
Do, 02.02. 16:00 7(480m) 8(630m)
Ortszeit Luftdruck NN (hPa) Tendenz (hPa in 3 Std.)
Do, 02.02. 19:00 1029 + 1,7
Do, 02.02. 13:00 1027 + 0,9
Do, 02.02. 7:00 1025 + 0,9
Do, 02.02. 1:00 1024 + 0,5
Mi, 01.02. 19:00 1024 + 0,8
Mi, 01.02. 13:00 1024 0,0
Mi, 01.02. 7:00 1023 + 0,8
Mi, 01.02. 1:00 1024 - 1,2
Ortszeit Luftdruck NN (hPa) Tendenz (hPa in 3 Std.)
Do, 02.02. 19:00 1029 + 1,7
Do, 02.02. 18:50 1029 keine Meldung
Do, 02.02. 18:40 1029 keine Meldung
Do, 02.02. 18:30 1029 + 1,7
Do, 02.02. 18:20 1029 keine Meldung
Do, 02.02. 18:10 1029 keine Meldung
Do, 02.02. 18:00 1029 + 2,0
Do, 02.02. 17:30 1029 + 1,7
Do, 02.02. 17:00 1028 + 1,2
Do, 02.02. 16:30 1028 + 0,8
Do, 02.02. 16:00 1027 + 0,4
Ortszeit Schneehöhe (cm)
Do, 02.02. 19:00 0
Do, 02.02. 13:00 0
Do, 02.02. 7:00 0
Do, 02.02. 1:00 0
Mi, 01.02. 19:00 0
Mi, 01.02. 13:00 0
Mi, 01.02. 7:00 0
Mi, 01.02. 1:00 0
Ortszeit Schneehöhe (cm)
Do, 02.02. 19:00 0
Do, 02.02. 18:50 0
Do, 02.02. 18:40 0
Do, 02.02. 18:30 0
Do, 02.02. 18:20 0
Do, 02.02. 18:10 0
Do, 02.02. 18:00 0
Do, 02.02. 17:30 0
Do, 02.02. 17:00 0
Do, 02.02. 16:30 0
Do, 02.02. 16:00 0
Link zu dieser Seite / Seite empfehlen

Das Wetter in ...